createdAt,value
2022-12-13T00:00:02.647Z,0.00
2022-12-13T00:01:02.468Z,0.00
2022-12-13T00:02:01.835Z,0.00
2022-12-13T00:03:01.129Z,0.00
2022-12-13T00:04:02.434Z,0.00
2022-12-13T00:05:01.283Z,0.00
2022-12-13T00:06:01.487Z,0.00
2022-12-13T00:07:01.277Z,0.00
2022-12-13T00:08:01.115Z,0.00
2022-12-13T00:09:01.373Z,0.00
2022-12-13T00:10:01.016Z,0.00
2022-12-13T00:11:01.411Z,0.00
2022-12-13T00:12:01.134Z,0.00
2022-12-13T00:13:01.031Z,0.00
2022-12-13T00:14:01.256Z,0.00
2022-12-13T00:15:01.652Z,0.00
2022-12-13T00:16:01.544Z,0.00
2022-12-13T00:17:01.588Z,0.00
2022-12-13T00:18:01.364Z,0.00
2022-12-13T00:19:01.151Z,0.00
2022-12-13T00:20:02.105Z,0.00
2022-12-13T00:21:01.573Z,0.00
2022-12-13T00:22:00.893Z,0.00
2022-12-13T00:23:01.210Z,0.00
2022-12-13T00:24:01.816Z,0.00
2022-12-13T00:25:01.612Z,0.00
2022-12-13T00:26:01.108Z,0.00
2022-12-13T00:27:00.821Z,0.00
2022-12-13T00:28:00.850Z,0.00
2022-12-13T00:29:01.048Z,0.00
2022-12-13T00:30:00.948Z,0.00
2022-12-13T00:31:19.772Z,0.00
2022-12-13T00:32:02.318Z,0.00
2022-12-13T00:33:00.873Z,0.00
2022-12-13T00:34:01.773Z,0.00
2022-12-13T00:35:00.833Z,0.00
2022-12-13T00:36:00.854Z,0.00
2022-12-13T00:37:03.462Z,0.00
2022-12-13T00:38:01.413Z,0.00
2022-12-13T00:39:01.293Z,0.00
2022-12-13T00:40:01.124Z,0.00
2022-12-13T00:41:01.334Z,0.00
2022-12-13T00:42:01.754Z,0.00
2022-12-13T00:43:02.258Z,0.00
2022-12-13T00:44:00.533Z,0.00
2022-12-13T00:45:01.027Z,0.00
2022-12-13T00:46:00.874Z,0.00
2022-12-13T00:47:00.587Z,0.00
2022-12-13T00:48:00.772Z,0.00
2022-12-13T00:49:00.637Z,0.00
2022-12-13T00:50:00.570Z,0.00
2022-12-13T00:51:01.394Z,0.00
2022-12-13T00:52:01.130Z,0.00
2022-12-13T00:53:00.579Z,0.00
2022-12-13T00:54:00.596Z,0.00
2022-12-13T00:55:00.985Z,0.00
2022-12-13T00:56:00.683Z,0.00
2022-12-13T00:57:00.938Z,0.00
2022-12-13T00:58:00.738Z,0.00
2022-12-13T00:59:00.512Z,0.00
2022-12-13T01:00:00.611Z,0.00
2022-12-13T01:01:00.477Z,0.00
2022-12-13T01:02:00.455Z,0.00
2022-12-13T01:03:00.598Z,0.00
2022-12-13T01:04:01.497Z,0.00
2022-12-13T01:05:01.276Z,0.00
2022-12-13T01:06:16.747Z,0.00
2022-12-13T01:07:01.496Z,0.00
2022-12-13T01:08:00.390Z,0.00
2022-12-13T01:09:00.452Z,0.00
2022-12-13T01:10:00.420Z,0.00
2022-12-13T01:11:00.519Z,0.00
2022-12-13T01:12:00.526Z,0.00
2022-12-13T01:13:00.412Z,0.00
2022-12-13T01:14:00.521Z,0.00
2022-12-13T01:15:00.635Z,0.00
2022-12-13T01:16:01.070Z,0.00
2022-12-13T01:17:00.618Z,0.00
2022-12-13T01:18:00.456Z,0.00
2022-12-13T01:19:00.276Z,0.00
2022-12-13T01:20:01.191Z,0.00
2022-12-13T01:21:00.282Z,0.00
2022-12-13T01:22:02.299Z,0.00
2022-12-13T01:23:06.108Z,0.00
2022-12-13T01:24:02.058Z,0.00
2022-12-13T01:25:00.518Z,0.00
2022-12-13T01:26:00.098Z,0.00
2022-12-13T01:27:01.332Z,0.00
2022-12-13T01:28:04.122Z,0.00
2022-12-13T01:29:00.318Z,0.00
2022-12-13T01:30:00.043Z,0.00
2022-12-13T01:31:00.817Z,0.00
2022-12-13T01:32:00.352Z,0.00
2022-12-13T01:33:00.072Z,0.00
2022-12-13T01:34:00.071Z,0.00
2022-12-13T01:35:00.069Z,0.00
2022-12-13T01:36:00.553Z,0.00
2022-12-13T01:37:01.090Z,0.00
2022-12-13T01:38:00.493Z,0.00
2022-12-13T01:39:00.109Z,0.00
2022-12-13T01:40:00.513Z,0.00
2022-12-13T01:41:01.455Z,0.00
2022-12-13T01:42:00.600Z,0.00
2022-12-13T01:43:00.018Z,0.00
2022-12-13T01:43:59.802Z,0.00
2022-12-13T01:45:01.668Z,0.00
2022-12-13T01:46:03.076Z,0.00
2022-12-13T01:46:59.961Z,0.00
2022-12-13T01:48:00.126Z,0.00
2022-12-13T01:49:04.698Z,0.00
2022-12-13T01:50:00.783Z,0.00
2022-12-13T01:50:59.986Z,0.00
2022-12-13T01:52:01.927Z,0.00
2022-12-13T01:53:00.973Z,0.00
2022-12-13T01:53:59.785Z,0.00
2022-12-13T01:55:03.199Z,0.00
2022-12-13T01:56:01.962Z,0.00
2022-12-13T01:57:00.636Z,0.00
2022-12-13T01:57:59.690Z,0.00
2022-12-13T01:58:59.813Z,0.00
2022-12-13T02:00:00.044Z,0.00
2022-12-13T02:01:00.522Z,0.00
2022-12-13T02:02:00.943Z,0.00
2022-12-13T02:02:59.654Z,0.00
2022-12-13T02:04:00.566Z,0.00
2022-12-13T02:04:59.913Z,0.00
2022-12-13T02:06:00.453Z,0.00
2022-12-13T02:07:01.102Z,0.00
2022-12-13T02:07:59.520Z,0.00
2022-12-13T02:08:59.392Z,0.00
2022-12-13T02:09:59.502Z,0.00
2022-12-13T02:11:00.634Z,0.00
2022-12-13T02:11:59.914Z,0.00
2022-12-13T02:12:59.407Z,0.00
2022-12-13T02:13:59.410Z,0.00
2022-12-13T02:15:00.680Z,0.00
2022-12-13T02:15:59.484Z,0.00
2022-12-13T02:16:59.443Z,0.00
2022-12-13T02:17:59.453Z,0.00
2022-12-13T02:19:00.539Z,0.00
2022-12-13T02:19:59.596Z,0.00
2022-12-13T02:20:59.675Z,0.00
2022-12-13T02:21:59.383Z,0.00
2022-12-13T02:22:59.595Z,0.00
2022-12-13T02:23:59.397Z,0.00
2022-12-13T02:24:59.378Z,0.00
2022-12-13T02:25:59.419Z,0.00
2022-12-13T02:26:59.351Z,0.00
2022-12-13T02:28:00.654Z,0.00
2022-12-13T02:28:59.142Z,0.00
2022-12-13T02:30:00.176Z,0.00
2022-12-13T02:30:59.361Z,0.00
2022-12-13T02:32:00.665Z,0.00
2022-12-13T02:32:59.456Z,0.00
2022-12-13T02:33:59.140Z,0.00
2022-12-13T02:34:59.160Z,0.00
2022-12-13T02:35:59.259Z,0.00
2022-12-13T02:36:59.191Z,0.00
2022-12-13T02:38:00.021Z,0.00
2022-12-13T02:38:58.993Z,0.00
2022-12-13T02:39:58.995Z,0.00
2022-12-13T02:41:00.677Z,0.00
2022-12-13T02:41:58.898Z,0.00
2022-12-13T02:42:59.182Z,0.00
2022-12-13T02:44:01.114Z,0.00
2022-12-13T02:44:59.950Z,0.00
2022-12-13T02:45:59.349Z,0.00
2022-12-13T02:46:59.256Z,0.00
2022-12-13T02:47:59.242Z,0.00
2022-12-13T02:48:59.785Z,0.00
2022-12-13T02:49:58.975Z,0.00
2022-12-13T02:50:59.351Z,0.00
2022-12-13T02:51:58.848Z,0.00
2022-12-13T02:52:58.982Z,0.00
2022-12-13T02:53:58.871Z,0.00
2022-12-13T02:54:59.012Z,0.00
2022-12-13T02:55:58.883Z,0.00
2022-12-13T02:56:59.311Z,0.00
2022-12-13T02:57:58.722Z,0.00
2022-12-13T02:58:58.800Z,0.00
2022-12-13T02:59:58.737Z,0.00
2022-12-13T03:00:59.019Z,0.00
2022-12-13T03:02:00.665Z,0.00
2022-12-13T03:02:59.913Z,0.00
2022-12-13T03:03:58.740Z,0.00
2022-12-13T03:04:58.738Z,0.00
2022-12-13T03:05:58.793Z,0.00
2022-12-13T03:06:58.872Z,0.00
2022-12-13T03:07:58.636Z,0.00
2022-12-13T03:08:58.693Z,0.00
2022-12-13T03:09:59.605Z,0.00
2022-12-13T03:11:02.502Z,0.00
2022-12-13T03:11:58.707Z,0.00
2022-12-13T03:12:58.503Z,0.00
2022-12-13T03:13:58.620Z,0.00
2022-12-13T03:14:58.625Z,0.00
2022-12-13T03:15:58.684Z,0.00
2022-12-13T03:16:58.758Z,0.00
2022-12-13T03:17:58.524Z,0.00
2022-12-13T03:18:58.554Z,0.00
2022-12-13T03:19:58.467Z,0.00
2022-12-13T03:20:58.582Z,0.00
2022-12-13T03:21:58.571Z,0.00
2022-12-13T03:22:58.572Z,0.00
2022-12-13T03:23:58.586Z,0.00
2022-12-13T03:24:58.394Z,0.00
2022-12-13T03:25:58.356Z,0.00
2022-12-13T03:26:58.614Z,0.00
2022-12-13T03:27:58.418Z,0.00
2022-12-13T03:28:58.415Z,0.00
2022-12-13T03:29:58.417Z,0.00
2022-12-13T03:30:58.431Z,0.00
2022-12-13T03:31:58.529Z,0.00
2022-12-13T03:32:58.832Z,0.00
2022-12-13T03:33:58.339Z,0.00
2022-12-13T03:35:00.681Z,0.00
2022-12-13T03:35:59.871Z,0.00
2022-12-13T03:36:58.279Z,0.00
2022-12-13T03:37:58.181Z,0.00
2022-12-13T03:38:58.090Z,0.00
2022-12-13T03:39:58.090Z,0.00
2022-12-13T03:40:58.190Z,0.00
2022-12-13T03:41:58.106Z,0.00
2022-12-13T03:42:58.197Z,0.00
2022-12-13T03:43:58.221Z,0.00
2022-12-13T03:44:58.139Z,0.00
2022-12-13T03:45:58.416Z,0.00
2022-12-13T03:46:58.137Z,0.00
2022-12-13T03:47:58.165Z,0.00
2022-12-13T03:48:58.262Z,0.00
2022-12-13T03:49:58.361Z,0.00
2022-12-13T03:50:59.491Z,0.00
2022-12-13T03:51:58.154Z,0.00
2022-12-13T03:52:58.074Z,0.00
2022-12-13T03:53:58.380Z,0.00
2022-12-13T03:54:58.090Z,0.00
2022-12-13T03:55:58.211Z,0.00
2022-12-13T03:56:58.134Z,0.00
2022-12-13T03:57:59.949Z,0.00
2022-12-13T03:58:59.037Z,0.00
2022-12-13T03:59:58.131Z,0.00
2022-12-13T04:00:58.235Z,0.00
2022-12-13T04:01:57.976Z,0.00
2022-12-13T04:02:58.399Z,0.00
2022-12-13T04:03:58.543Z,0.00
2022-12-13T04:04:57.947Z,0.00
2022-12-13T04:05:57.841Z,0.00
2022-12-13T04:06:57.946Z,0.00
2022-12-13T04:08:00.775Z,0.00
2022-12-13T04:08:58.022Z,0.00
2022-12-13T04:09:57.989Z,0.00
2022-12-13T04:10:57.897Z,0.00
2022-12-13T04:11:57.980Z,0.00
2022-12-13T04:13:00.441Z,0.00
2022-12-13T04:13:58.424Z,0.00
2022-12-13T04:14:57.820Z,0.00
2022-12-13T04:15:57.763Z,0.00
2022-12-13T04:16:58.054Z,0.00
2022-12-13T04:17:57.734Z,0.00
2022-12-13T04:18:58.361Z,0.00
2022-12-13T04:19:57.740Z,0.00
2022-12-13T04:20:57.851Z,0.00
2022-12-13T04:21:57.770Z,0.00
2022-12-13T04:22:57.789Z,0.00
2022-12-13T04:24:00.968Z,0.00
2022-12-13T04:24:57.725Z,0.00
2022-12-13T04:25:57.480Z,0.00
2022-12-13T04:26:57.984Z,0.00
2022-12-13T04:27:57.580Z,0.00
2022-12-13T04:28:57.604Z,0.00
2022-12-13T04:29:58.552Z,0.00
2022-12-13T04:30:57.515Z,0.00
2022-12-13T04:31:57.650Z,0.00
2022-12-13T04:32:58.603Z,0.00
2022-12-13T04:33:57.462Z,0.00
2022-12-13T04:35:00.823Z,0.00
2022-12-13T04:35:57.467Z,0.00
2022-12-13T04:36:57.652Z,0.00
2022-12-13T04:37:57.359Z,0.00
2022-12-13T04:38:57.467Z,0.00
2022-12-13T04:40:00.744Z,0.00
2022-12-13T04:40:57.491Z,0.00
2022-12-13T04:41:57.485Z,0.00
2022-12-13T04:42:57.443Z,0.00
2022-12-13T04:43:58.030Z,0.00
2022-12-13T04:44:57.631Z,0.00
2022-12-13T04:45:57.595Z,0.00
2022-12-13T04:47:00.809Z,0.00
2022-12-13T04:47:57.836Z,0.00
2022-12-13T04:48:57.346Z,0.00
2022-12-13T04:49:57.358Z,0.00
2022-12-13T04:50:57.378Z,0.00
2022-12-13T04:52:00.862Z,0.00
2022-12-13T04:52:57.653Z,0.00
2022-12-13T04:53:57.392Z,0.00
2022-12-13T04:54:58.310Z,0.00
2022-12-13T04:55:57.292Z,0.00
2022-12-13T04:56:57.333Z,0.00
2022-12-13T04:57:57.811Z,0.00
2022-12-13T04:58:57.334Z,0.00
2022-12-13T04:59:57.128Z,0.00
2022-12-13T05:00:57.238Z,0.00
2022-12-13T05:01:57.286Z,0.00
2022-12-13T05:02:57.265Z,0.00
2022-12-13T05:03:57.882Z,0.00
2022-12-13T05:04:57.266Z,0.00
2022-12-13T05:05:57.801Z,0.00
2022-12-13T05:06:58.494Z,0.00
2022-12-13T05:08:03.195Z,0.00
2022-12-13T05:12:42.354Z,0.00
2022-12-13T05:13:22.511Z,0.00
2022-12-13T05:14:26.819Z,0.00
2022-12-13T05:15:26.486Z,0.00
2022-12-13T05:16:19.969Z,0.00
2022-12-13T05:17:20.786Z,0.00
2022-12-13T05:18:19.887Z,0.00
2022-12-13T05:19:19.777Z,0.00
2022-12-13T05:20:19.814Z,0.00
2022-12-13T05:21:19.996Z,0.00
2022-12-13T05:22:20.998Z,0.00
2022-12-13T05:23:22.540Z,0.00
2022-12-13T05:24:19.721Z,0.00
2022-12-13T05:25:19.822Z,0.00
2022-12-13T05:26:19.825Z,0.00
2022-12-13T05:27:25.385Z,0.00
2022-12-13T05:28:27.692Z,0.00
2022-12-13T05:29:20.970Z,0.00
2022-12-13T05:30:19.751Z,0.00
2022-12-13T05:31:23.188Z,0.00
2022-12-13T05:32:19.831Z,0.00
2022-12-13T05:33:29.228Z,0.00
2022-12-13T05:37:44.997Z,0.00
2022-12-13T05:38:41.917Z,0.00
2022-12-13T05:39:44.689Z,0.00
2022-12-13T05:40:42.746Z,0.00
2022-12-13T05:41:49.828Z,0.00
2022-12-13T05:43:21.053Z,0.00
2022-12-13T05:45:33.715Z,0.00
2022-12-13T05:46:27.627Z,0.00
2022-12-13T05:47:27.662Z,0.00
2022-12-13T05:48:25.974Z,0.00
2022-12-13T05:49:26.043Z,0.00
2022-12-13T05:50:26.060Z,0.00
2022-12-13T05:51:26.049Z,0.00
2022-12-13T05:52:30.481Z,0.00
2022-12-13T05:53:30.777Z,0.00
2022-12-13T05:54:26.145Z,0.00
2022-12-13T05:55:25.995Z,0.00
2022-12-13T05:56:25.775Z,0.00
2022-12-13T05:57:25.960Z,0.00
2022-12-13T05:58:25.995Z,0.00
2022-12-13T05:59:25.814Z,0.00
2022-12-13T06:00:29.389Z,0.00
2022-12-13T06:01:25.841Z,0.00
2022-12-13T06:02:26.155Z,0.00
2022-12-13T06:03:26.132Z,0.00
2022-12-13T06:04:26.441Z,0.00
2022-12-13T06:05:25.844Z,0.00
2022-12-13T06:06:26.200Z,0.00
2022-12-13T06:07:25.858Z,0.00
2022-12-13T06:08:25.941Z,0.00
2022-12-13T06:09:25.753Z,0.00
2022-12-13T06:10:34.811Z,0.00
2022-12-13T06:11:32.000Z,0.00
2022-12-13T06:12:32.124Z,0.00
2022-12-13T06:13:31.718Z,0.00
2022-12-13T06:14:27.132Z,0.00
2022-12-13T06:15:26.725Z,0.00
2022-12-13T06:16:26.867Z,0.00
2022-12-13T06:17:25.730Z,0.00
2022-12-13T06:18:25.802Z,0.00
2022-12-13T06:19:26.732Z,0.00
2022-12-13T06:20:25.850Z,0.00
2022-12-13T06:21:25.651Z,0.00
2022-12-13T06:22:25.648Z,0.00
2022-12-13T06:23:26.059Z,0.00
2022-12-13T06:24:25.769Z,0.00
2022-12-13T06:25:30.850Z,0.00
2022-12-13T06:26:26.621Z,0.00
2022-12-13T06:27:25.781Z,0.00
2022-12-13T06:28:25.707Z,0.00
2022-12-13T06:29:26.111Z,0.00
2022-12-13T06:30:25.692Z,0.00
2022-12-13T06:31:25.812Z,0.00
2022-12-13T06:32:25.705Z,0.00
2022-12-13T06:33:25.625Z,0.00
2022-12-13T06:34:25.616Z,0.00
2022-12-13T06:35:28.729Z,0.00
2022-12-13T06:36:25.643Z,0.00
2022-12-13T06:37:25.575Z,0.00
2022-12-13T06:38:32.077Z,0.00
2022-12-13T06:39:26.679Z,0.00
2022-12-13T06:40:26.615Z,0.00
2022-12-13T06:41:30.549Z,0.00
2022-12-13T06:42:26.519Z,0.00
2022-12-13T06:43:25.699Z,0.00
2022-12-13T06:44:25.507Z,0.00
2022-12-13T06:45:25.238Z,0.00
2022-12-13T06:46:25.452Z,0.00
2022-12-13T06:47:31.974Z,0.00
2022-12-13T06:48:26.354Z,0.00
2022-12-13T06:49:25.721Z,0.00
2022-12-13T06:50:26.374Z,0.00
2022-12-13T06:51:32.591Z,0.00
2022-12-13T06:52:26.598Z,0.00
2022-12-13T06:53:25.686Z,0.00
2022-12-13T06:54:25.565Z,0.00
2022-12-13T06:55:25.376Z,0.00
2022-12-13T06:56:25.515Z,0.00
2022-12-13T06:57:25.205Z,0.00
2022-12-13T06:58:25.527Z,0.00
2022-12-13T06:59:25.502Z,0.00
2022-12-13T07:00:35.562Z,0.00
2022-12-13T07:01:26.437Z,0.00
2022-12-13T07:02:26.392Z,0.00
2022-12-13T07:03:25.270Z,0.00
2022-12-13T07:04:29.419Z,0.00
2022-12-13T07:05:26.083Z,0.00
2022-12-13T07:06:25.159Z,0.00
2022-12-13T07:07:25.142Z,0.00
2022-12-13T07:08:25.227Z,0.00
2022-12-13T07:09:25.051Z,0.00
2022-12-13T07:10:25.091Z,0.00
2022-12-13T07:11:25.208Z,0.00
2022-12-13T07:12:25.176Z,0.00
2022-12-13T07:13:25.194Z,0.00
2022-12-13T07:14:25.224Z,0.00
2022-12-13T07:15:25.028Z,0.00
2022-12-13T07:16:25.134Z,0.00
2022-12-13T07:17:33.418Z,5.62
2022-12-13T07:18:26.344Z,5.62
2022-12-13T07:19:25.743Z,5.62
2022-12-13T07:20:25.532Z,5.62
2022-12-13T07:21:25.452Z,5.62
2022-12-13T07:22:25.777Z,5.62
2022-12-13T07:23:25.277Z,5.62
2022-12-13T07:24:26.279Z,5.62
2022-12-13T07:25:29.287Z,11.25
2022-12-13T07:26:24.978Z,11.25
2022-12-13T07:27:25.687Z,11.25
2022-12-13T07:28:25.096Z,11.25
2022-12-13T07:29:24.718Z,11.25
2022-12-13T07:30:24.710Z,11.25
2022-12-13T07:31:24.855Z,16.88
2022-12-13T07:32:25.446Z,16.88
2022-12-13T07:33:24.692Z,16.88
2022-12-13T07:34:24.717Z,16.88
2022-12-13T07:35:24.832Z,16.88
2022-12-13T07:36:24.748Z,22.50
2022-12-13T07:37:30.470Z,22.50
2022-12-13T07:38:24.753Z,22.50
2022-12-13T07:39:24.658Z,22.50
2022-12-13T07:40:24.782Z,22.50
2022-12-13T07:41:24.812Z,28.12
2022-12-13T07:42:25.094Z,28.12
2022-12-13T07:43:24.598Z,28.12
2022-12-13T07:44:24.755Z,28.12
2022-12-13T07:45:24.828Z,28.12
2022-12-13T07:46:33.275Z,33.75
2022-12-13T07:47:25.554Z,33.75
2022-12-13T07:48:24.648Z,33.75
2022-12-13T07:49:24.434Z,33.75
2022-12-13T07:50:25.748Z,39.38
2022-12-13T07:51:24.567Z,39.38
2022-12-13T07:52:24.442Z,39.38
2022-12-13T07:53:25.474Z,39.38
2022-12-13T07:54:24.780Z,45.00
2022-12-13T07:55:33.117Z,45.00
2022-12-13T07:56:25.605Z,45.00
2022-12-13T07:57:24.483Z,45.00
2022-12-13T07:58:24.420Z,50.62
2022-12-13T07:59:28.238Z,50.62
2022-12-13T08:00:24.417Z,50.62
2022-12-13T08:01:24.685Z,50.62
2022-12-13T08:02:24.322Z,56.25
2022-12-13T08:03:26.144Z,56.25
2022-12-13T08:04:24.377Z,56.25
2022-12-13T08:05:26.146Z,61.88
2022-12-13T08:06:25.260Z,61.88
2022-12-13T08:07:25.056Z,67.50
2022-12-13T08:08:31.194Z,67.50
2022-12-13T08:09:25.191Z,73.12
2022-12-13T08:10:24.081Z,73.12
2022-12-13T08:11:24.475Z,78.75
2022-12-13T08:12:24.516Z,78.75
2022-12-13T08:13:24.511Z,84.38
2022-12-13T08:14:24.388Z,90.00
2022-12-13T08:15:24.105Z,90.00
2022-12-13T08:16:28.440Z,95.62
2022-12-13T08:17:25.648Z,101.25
2022-12-13T08:18:24.404Z,101.25
2022-12-13T08:19:24.312Z,106.88
2022-12-13T08:20:24.052Z,106.88
2022-12-13T08:21:52.650Z,112.50
2022-12-13T08:22:26.948Z,112.50
2022-12-13T08:23:25.086Z,112.50
2022-12-13T08:24:24.383Z,118.12
2022-12-13T08:25:24.193Z,118.12
2022-12-13T08:26:24.596Z,123.75
2022-12-13T08:27:25.699Z,123.75
2022-12-13T08:28:23.895Z,123.75
2022-12-13T08:29:33.925Z,123.75
2022-12-13T08:30:25.146Z,123.75
2022-12-13T08:31:24.598Z,123.75
2022-12-13T08:32:25.013Z,129.38
2022-12-13T08:33:24.623Z,123.75
2022-12-13T08:34:23.845Z,123.75
2022-12-13T08:35:24.249Z,129.38
2022-12-13T08:36:24.884Z,129.38
2022-12-13T08:37:24.048Z,135.00
2022-12-13T08:38:23.868Z,129.38
2022-12-13T08:39:23.867Z,129.38
2022-12-13T08:40:23.998Z,129.38
2022-12-13T08:41:23.913Z,129.38
2022-12-13T08:42:25.008Z,129.38
2022-12-13T08:43:24.884Z,129.38
2022-12-13T08:44:23.824Z,129.38
2022-12-13T08:45:23.719Z,129.38
2022-12-13T08:46:23.933Z,129.38
2022-12-13T08:47:25.833Z,129.38
2022-12-13T08:48:24.171Z,135.00
2022-12-13T08:49:23.634Z,146.25
2022-12-13T08:50:24.033Z,157.50
2022-12-13T08:51:24.622Z,168.75
2022-12-13T08:52:23.553Z,174.38
2022-12-13T08:53:29.448Z,174.38
2022-12-13T08:54:31.527Z,180.00
2022-12-13T08:55:31.147Z,185.62
2022-12-13T08:56:24.819Z,185.62
2022-12-13T08:57:23.601Z,191.25
2022-12-13T08:58:23.923Z,196.88
2022-12-13T08:59:23.788Z,202.50
2022-12-13T09:00:23.914Z,196.88
2022-12-13T09:01:23.470Z,196.88
2022-12-13T09:02:23.569Z,196.88
2022-12-13T09:03:26.712Z,185.62
2022-12-13T09:04:31.635Z,180.00
2022-12-13T09:05:33.604Z,174.38
2022-12-13T09:06:24.603Z,180.00
2022-12-13T09:07:23.443Z,185.62
2022-12-13T09:08:25.506Z,202.50
2022-12-13T09:09:23.556Z,208.12
2022-12-13T09:10:26.850Z,208.12
2022-12-13T09:11:33.195Z,202.50
2022-12-13T09:12:30.028Z,196.88
2022-12-13T09:13:32.036Z,196.88
2022-12-13T09:14:24.435Z,196.88
2022-12-13T09:15:24.702Z,202.50
2022-12-13T09:16:24.204Z,213.75
2022-12-13T09:17:24.381Z,219.38
2022-12-13T09:18:24.385Z,225.00
2022-12-13T09:19:26.723Z,230.62
2022-12-13T09:20:29.749Z,225.00
2022-12-13T09:21:31.510Z,202.50
2022-12-13T09:22:32.740Z,185.62
2022-12-13T09:23:24.714Z,174.38
2022-12-13T09:24:24.226Z,168.75
2022-12-13T09:25:24.286Z,168.75
2022-12-13T09:26:25.350Z,168.75
2022-12-13T09:27:27.515Z,168.75
2022-12-13T09:28:24.466Z,168.75
2022-12-13T09:29:23.274Z,168.75
2022-12-13T09:30:23.240Z,168.75
2022-12-13T09:31:26.733Z,168.75
2022-12-13T09:32:23.353Z,168.75
2022-12-13T09:33:30.305Z,168.75
2022-12-13T09:34:24.215Z,168.75
2022-12-13T09:35:23.330Z,168.75
2022-12-13T09:37:33.898Z,174.38
2022-12-13T09:38:15.884Z,174.38
2022-12-13T09:39:15.781Z,174.38
2022-12-13T09:40:37.485Z,174.38
2022-12-13T09:41:19.592Z,174.38
2022-12-13T09:42:15.626Z,174.38
2022-12-13T09:43:22.918Z,180.00
2022-12-13T09:44:31.575Z,180.00
2022-12-13T09:45:22.388Z,180.00
2022-12-13T09:46:22.747Z,180.00
2022-12-13T09:47:22.706Z,180.00
2022-12-13T09:48:16.553Z,180.00
2022-12-13T09:49:23.278Z,185.62
2022-12-13T09:50:16.426Z,185.62
2022-12-13T09:51:29.908Z,185.62
2022-12-13T09:52:21.418Z,185.62
2022-12-13T09:53:21.963Z,191.25
2022-12-13T09:54:16.396Z,191.25
2022-12-13T09:55:15.390Z,191.25
2022-12-13T09:56:15.382Z,191.25
2022-12-13T09:57:15.516Z,196.88
2022-12-13T09:58:16.321Z,196.88
2022-12-13T09:59:15.665Z,196.88
2022-12-13T10:00:15.442Z,196.88
2022-12-13T10:01:22.481Z,196.88
2022-12-13T10:02:16.637Z,202.50
2022-12-13T10:03:15.528Z,202.50
2022-12-13T10:04:15.353Z,202.50
2022-12-13T10:05:21.756Z,202.50
2022-12-13T10:06:22.742Z,208.12
2022-12-13T10:07:17.241Z,202.50
2022-12-13T10:08:15.300Z,202.50
2022-12-13T10:09:15.392Z,202.50
2022-12-13T10:10:16.313Z,202.50
2022-12-13T10:11:15.394Z,202.50
2022-12-13T10:12:15.307Z,208.12
2022-12-13T10:13:15.309Z,208.12
2022-12-13T10:14:16.239Z,208.12
2022-12-13T10:15:22.076Z,208.12
2022-12-13T10:16:16.236Z,208.12
2022-12-13T10:17:16.178Z,219.38
2022-12-13T10:18:16.172Z,230.62
2022-12-13T10:19:28.197Z,247.50
2022-12-13T10:20:16.391Z,258.75
2022-12-13T10:21:15.247Z,264.38
2022-12-13T10:22:15.479Z,264.38
2022-12-13T10:23:35.662Z,253.12
2022-12-13T10:24:26.403Z,247.50
2022-12-13T10:25:16.206Z,241.88
2022-12-13T10:26:24.161Z,236.25
2022-12-13T10:27:16.032Z,225.00
2022-12-13T10:28:15.194Z,213.75
2022-12-13T10:29:15.244Z,208.12
2022-12-13T10:30:15.052Z,213.75
2022-12-13T10:31:15.383Z,225.00
2022-12-13T10:32:15.056Z,241.88
2022-12-13T10:33:16.990Z,270.00
2022-12-13T10:34:18.983Z,286.88
2022-12-13T10:35:15.255Z,292.50
2022-12-13T10:36:15.499Z,292.50
2022-12-13T10:37:15.670Z,286.88
2022-12-13T10:38:15.450Z,275.62
2022-12-13T10:39:15.300Z,275.62
2022-12-13T10:40:15.667Z,281.25
2022-12-13T10:41:16.042Z,286.88
2022-12-13T10:42:22.486Z,292.50
2022-12-13T10:43:16.248Z,286.88
2022-12-13T10:44:15.967Z,281.25
2022-12-13T10:45:14.911Z,281.25
2022-12-13T10:46:15.114Z,275.62
2022-12-13T10:47:17.155Z,275.62
2022-12-13T10:48:15.752Z,275.62
2022-12-13T10:49:16.126Z,275.62
2022-12-13T10:50:15.947Z,270.00
2022-12-13T10:51:16.307Z,264.38
2022-12-13T10:52:15.637Z,264.38
2022-12-13T10:53:16.606Z,258.75
2022-12-13T10:54:15.169Z,253.12
2022-12-13T10:55:23.716Z,258.75
2022-12-13T10:56:15.602Z,264.38
2022-12-13T10:57:15.747Z,275.62
2022-12-13T10:58:14.920Z,286.88
2022-12-13T10:59:17.699Z,292.50
2022-12-13T11:00:15.636Z,292.50
2022-12-13T11:01:15.603Z,292.50
2022-12-13T11:02:14.576Z,292.50
2022-12-13T11:03:14.854Z,303.75
2022-12-13T11:04:14.779Z,315.00
2022-12-13T11:05:14.986Z,326.25
2022-12-13T11:06:15.792Z,331.88
2022-12-13T11:07:14.576Z,320.62
2022-12-13T11:08:14.675Z,320.62
2022-12-13T11:09:23.068Z,326.25
2022-12-13T11:10:15.643Z,320.62
2022-12-13T11:11:14.809Z,315.00
2022-12-13T11:12:14.724Z,320.62
2022-12-13T11:13:14.813Z,331.88
2022-12-13T11:14:14.641Z,326.25
2022-12-13T11:15:14.740Z,320.62
2022-12-13T11:16:14.894Z,315.00
2022-12-13T11:17:14.723Z,309.38
2022-12-13T11:18:14.569Z,298.12
2022-12-13T11:19:16.103Z,298.12
2022-12-13T11:20:15.041Z,298.12
2022-12-13T11:21:15.289Z,298.12
2022-12-13T11:22:15.087Z,298.12
2022-12-13T11:23:15.388Z,292.50
2022-12-13T11:24:14.688Z,292.50
2022-12-13T11:25:16.341Z,292.50
2022-12-13T11:26:14.187Z,292.50
2022-12-13T11:27:14.971Z,292.50
2022-12-13T11:28:37.317Z,292.50
2022-12-13T11:29:15.660Z,286.88
2022-12-13T11:30:17.783Z,292.50
2022-12-13T11:31:16.706Z,292.50
2022-12-13T11:32:22.603Z,292.50
2022-12-13T11:33:15.391Z,292.50
2022-12-13T11:34:16.378Z,292.50
2022-12-13T11:35:14.445Z,292.50
2022-12-13T11:36:15.492Z,292.50
2022-12-13T11:37:14.084Z,298.12
2022-12-13T11:38:14.343Z,298.12
2022-12-13T11:39:15.217Z,292.50
2022-12-13T11:40:14.716Z,286.88
2022-12-13T11:41:31.571Z,281.25
2022-12-13T11:42:37.242Z,275.62
2022-12-13T11:43:14.310Z,275.62
2022-12-13T11:44:15.447Z,270.00
2022-12-13T11:45:22.268Z,264.38
2022-12-13T11:46:14.938Z,258.75
2022-12-13T11:47:14.240Z,258.75
2022-12-13T11:48:14.975Z,258.75
2022-12-13T11:49:14.886Z,264.38
2022-12-13T11:50:17.711Z,264.38
2022-12-13T11:51:15.097Z,264.38
2022-12-13T11:52:14.156Z,258.75
2022-12-13T11:53:15.190Z,253.12
2022-12-13T11:54:13.873Z,247.50
2022-12-13T11:55:15.027Z,241.88
2022-12-13T11:56:14.725Z,241.88
2022-12-13T11:57:13.898Z,241.88
2022-12-13T11:58:16.405Z,241.88
2022-12-13T11:59:23.820Z,241.88
2022-12-13T12:00:15.328Z,241.88
2022-12-13T12:01:15.181Z,247.50
2022-12-13T12:02:16.891Z,247.50
2022-12-13T12:03:17.706Z,247.50
2022-12-13T12:04:13.856Z,241.88
2022-12-13T12:05:13.739Z,241.88
2022-12-13T12:06:14.172Z,236.25
2022-12-13T12:07:31.749Z,236.25
2022-12-13T12:08:32.076Z,236.25
2022-12-13T12:09:14.746Z,230.62
2022-12-13T12:10:13.901Z,236.25
2022-12-13T12:11:14.318Z,236.25
2022-12-13T12:12:14.127Z,241.88
2022-12-13T12:13:14.754Z,241.88
2022-12-13T12:14:15.202Z,241.88
2022-12-13T12:15:15.256Z,230.62
2022-12-13T12:16:13.604Z,219.38
2022-12-13T12:17:13.748Z,213.75
2022-12-13T12:18:14.571Z,208.12
2022-12-13T12:19:13.976Z,213.75
2022-12-13T12:20:13.732Z,213.75
2022-12-13T12:21:15.510Z,213.75
2022-12-13T12:22:16.130Z,219.38
2022-12-13T12:23:13.581Z,219.38
2022-12-13T12:24:14.796Z,225.00
2022-12-13T12:25:13.486Z,236.25
2022-12-13T12:26:13.494Z,247.50
2022-12-13T12:27:13.713Z,253.12
2022-12-13T12:28:14.512Z,258.75
2022-12-13T12:29:13.407Z,258.75
2022-12-13T12:30:13.413Z,264.38
2022-12-13T12:31:17.757Z,270.00
2022-12-13T12:32:14.347Z,270.00
2022-12-13T12:33:13.657Z,270.00
2022-12-13T12:34:14.265Z,270.00
2022-12-13T12:35:13.365Z,275.62
2022-12-13T12:36:13.362Z,275.62
2022-12-13T12:37:13.569Z,270.00
2022-12-13T12:38:13.984Z,258.75
2022-12-13T12:39:13.598Z,247.50
2022-12-13T12:40:13.081Z,241.88
2022-12-13T12:41:17.237Z,236.25
2022-12-13T12:42:14.329Z,230.62
2022-12-13T12:43:16.836Z,230.62
2022-12-13T12:44:14.034Z,219.38
2022-12-13T12:45:27.143Z,213.75
2022-12-13T12:46:14.570Z,208.12
2022-12-13T12:47:54.564Z,202.50
2022-12-13T12:49:14.226Z,196.88
2022-12-13T12:50:14.900Z,196.88
2022-12-13T12:51:14.306Z,191.25
2022-12-13T12:52:13.291Z,185.62
2022-12-13T12:53:14.284Z,185.62
2022-12-13T12:54:13.180Z,185.62
2022-12-13T12:55:14.322Z,191.25
2022-12-13T12:56:14.735Z,191.25
2022-12-13T12:57:14.407Z,196.88
2022-12-13T12:58:13.819Z,196.88
2022-12-13T12:59:13.239Z,202.50
2022-12-13T13:00:14.160Z,213.75
2022-12-13T13:01:13.177Z,219.38
2022-12-13T13:02:14.921Z,230.62
2022-12-13T13:03:18.807Z,236.25
2022-12-13T13:04:13.874Z,241.88
2022-12-13T13:05:14.127Z,241.88
2022-12-13T13:06:12.867Z,247.50
2022-12-13T13:07:22.987Z,258.75